createdAt,value
2022-08-02T00:00:34.377Z,14.88
2022-08-02T00:03:01.077Z,14.82
2022-08-02T00:05:27.886Z,14.23
2022-08-02T00:07:54.538Z,14.38
2022-08-02T00:10:21.245Z,14.55
2022-08-02T00:12:47.927Z,15.18
2022-08-02T00:15:16.281Z,14.35
2022-08-02T00:17:44.242Z,14.43
2022-08-02T00:20:11.957Z,14.55
2022-08-02T00:22:38.975Z,14.30
2022-08-02T00:25:06.491Z,15.20
2022-08-02T00:27:33.208Z,15.48
2022-08-02T00:29:59.913Z,15.15
2022-08-02T00:32:26.612Z,15.00
2022-08-02T00:34:53.281Z,14.88
2022-08-02T00:37:19.928Z,14.35
2022-08-02T00:39:46.657Z,15.40
2022-08-02T00:42:16.689Z,15.00
2022-08-02T00:44:43.533Z,15.67
2022-08-02T00:47:10.443Z,15.13
2022-08-02T00:49:37.653Z,15.93
2022-08-02T00:52:05.282Z,15.10
2022-08-02T00:54:32.169Z,15.45
2022-08-02T00:56:58.898Z,15.23
2022-08-02T00:59:25.571Z,15.52
2022-08-02T01:01:57.136Z,15.25
2022-08-02T01:04:30.017Z,15.65
2022-08-02T01:07:00.111Z,15.25
2022-08-02T01:09:26.979Z,15.00
2022-08-02T01:11:54.014Z,15.10
2022-08-02T01:14:24.575Z,15.07
2022-08-02T01:17:08.897Z,15.63
2022-08-02T01:19:54.385Z,15.30
2022-08-02T01:23:01.204Z,16.33
2022-08-02T01:25:29.018Z,16.23
2022-08-02T01:28:17.695Z,15.93
2022-08-02T01:30:48.483Z,15.45
2022-08-02T01:33:21.196Z,15.55
2022-08-02T01:35:56.491Z,15.20
2022-08-02T01:38:29.582Z,15.30
2022-08-02T01:40:59.011Z,15.40
2022-08-02T01:43:29.359Z,15.70
2022-08-02T01:45:58.779Z,15.52
2022-08-02T01:48:28.720Z,16.40
2022-08-02T01:50:57.441Z,16.40
2022-08-02T01:53:27.212Z,17.05
2022-08-02T01:55:58.396Z,16.17
2022-08-02T01:58:31.213Z,15.93
2022-08-02T02:00:59.857Z,15.70
2022-08-02T02:03:29.113Z,15.07
2022-08-02T02:05:57.868Z,15.25
2022-08-02T02:08:29.153Z,15.60
2022-08-02T02:10:57.509Z,16.02
2022-08-02T02:13:45.335Z,15.40
2022-08-02T02:16:14.136Z,15.10
2022-08-02T02:18:44.583Z,15.82
2022-08-02T02:21:13.397Z,15.55
2022-08-02T02:23:40.775Z,15.60
2022-08-02T02:26:11.839Z,15.60
2022-08-02T02:28:40.091Z,15.63
2022-08-02T02:31:13.939Z,15.10
2022-08-02T02:33:46.995Z,15.02
2022-08-02T02:36:16.702Z,15.77
2022-08-02T02:38:45.441Z,15.68
2022-08-02T02:41:13.816Z,16.00
2022-08-02T02:43:42.247Z,15.70
2022-08-02T02:46:10.764Z,15.35
2022-08-02T02:48:37.940Z,15.52
2022-08-02T02:51:08.171Z,15.88
2022-08-02T02:54:33.470Z,16.08
2022-08-02T02:56:29.368Z,16.45
2022-08-02T02:58:56.321Z,16.90
2022-08-02T03:01:35.883Z,15.40
2022-08-02T03:04:17.974Z,15.00
2022-08-02T03:06:45.121Z,16.83
2022-08-02T03:09:12.247Z,17.17
2022-08-02T03:11:40.707Z,16.73
2022-08-02T03:14:11.525Z,18.17
2022-08-02T03:19:12.677Z,16.50
2022-08-02T03:21:39.667Z,17.85
2022-08-02T03:24:07.097Z,17.63
2022-08-02T03:26:33.797Z,15.27
2022-08-02T03:29:00.756Z,18.10
2022-08-02T03:31:39.923Z,16.52
2022-08-02T03:34:06.600Z,15.90
2022-08-02T03:36:36.446Z,16.85
2022-08-02T03:39:04.838Z,16.40
2022-08-02T03:41:33.232Z,15.82
2022-08-02T03:44:00.865Z,16.33
2022-08-02T03:46:28.214Z,16.50
2022-08-02T03:48:56.261Z,16.63
2022-08-02T03:51:24.055Z,16.77
2022-08-02T03:53:50.978Z,16.42
2022-08-02T03:56:18.566Z,15.90
2022-08-02T03:58:49.149Z,16.52
2022-08-02T04:01:16.881Z,16.35
2022-08-02T04:03:43.948Z,16.83
2022-08-02T04:06:10.747Z,17.40
2022-08-02T04:08:38.651Z,17.65
2022-08-02T04:11:25.232Z,17.40
2022-08-02T04:13:56.795Z,17.25
2022-08-02T04:16:48.893Z,17.77
2022-08-02T04:19:50.224Z,17.48
2022-08-02T04:22:21.395Z,18.05
2022-08-02T04:24:51.977Z,18.17
2022-08-02T04:27:51.221Z,17.88
2022-08-02T04:30:08.446Z,18.50
2022-08-02T04:32:35.985Z,17.75
2022-08-02T04:35:19.643Z,23.92
2022-08-02T04:38:08.751Z,18.98
2022-08-02T04:40:34.466Z,18.77
2022-08-02T04:43:01.214Z,19.00
2022-08-02T04:45:30.520Z,18.67
2022-08-02T04:48:05.659Z,18.20
2022-08-02T04:50:33.478Z,17.17
2022-08-02T04:53:00.222Z,16.95
2022-08-02T04:55:29.087Z,17.90
2022-08-02T04:57:57.800Z,18.52
2022-08-02T05:00:26.506Z,17.55
2022-08-02T05:02:54.220Z,16.95
2022-08-02T05:05:21.064Z,18.13
2022-08-02T05:07:47.822Z,17.55
2022-08-02T05:10:15.231Z,16.50
2022-08-02T05:12:42.029Z,17.48
2022-08-02T05:15:12.646Z,17.05
2022-08-02T05:17:47.953Z,16.73
2022-08-02T05:20:20.106Z,18.02
2022-08-02T05:22:47.650Z,17.92
2022-08-02T05:25:15.237Z,17.83
2022-08-02T05:27:42.248Z,17.80
2022-08-02T05:30:09.473Z,17.42
2022-08-02T05:32:44.130Z,17.67
2022-08-02T05:35:10.987Z,17.58
2022-08-02T05:37:37.844Z,16.75
2022-08-02T05:40:05.434Z,17.15
2022-08-02T05:42:40.637Z,17.70
2022-08-02T05:45:07.619Z,17.33
2022-08-02T05:47:34.579Z,17.52
2022-08-02T05:50:01.411Z,17.92
2022-08-02T05:52:41.298Z,17.58
2022-08-02T05:55:17.303Z,17.60
2022-08-02T05:58:02.703Z,18.10
2022-08-02T06:00:33.689Z,18.05
2022-08-02T06:03:21.904Z,17.50
2022-08-02T06:06:05.762Z,17.85
2022-08-02T06:08:58.756Z,16.98
2022-08-02T06:11:36.752Z,17.63
2022-08-02T06:14:05.874Z,16.77
2022-08-02T06:16:41.207Z,15.32
2022-08-02T06:19:11.709Z,16.10
2022-08-02T06:22:32.032Z,17.63
2022-08-02T06:24:30.642Z,16.75
2022-08-02T06:26:58.548Z,16.10
2022-08-02T06:29:26.232Z,16.60
2022-08-02T06:31:54.011Z,17.35
2022-08-02T06:34:20.846Z,17.73
2022-08-02T06:37:07.597Z,17.02
2022-08-02T06:39:46.748Z,16.98
2022-08-02T06:42:17.430Z,16.60
2022-08-02T06:44:57.936Z,17.45
2022-08-02T06:47:25.272Z,16.52
2022-08-02T06:49:54.183Z,17.63
2022-08-02T06:52:28.735Z,18.13
2022-08-02T06:54:59.194Z,16.98
2022-08-02T06:57:27.045Z,17.50
2022-08-02T06:59:54.297Z,16.20
2022-08-02T07:02:21.268Z,16.88
2022-08-02T07:04:48.145Z,17.20
2022-08-02T07:07:14.848Z,16.20
2022-08-02T07:10:00.173Z,17.55
2022-08-02T07:12:32.498Z,16.58
2022-08-02T07:15:01.582Z,15.75
2022-08-02T07:17:29.391Z,15.60
2022-08-02T07:19:57.039Z,15.40
2022-08-02T07:22:24.661Z,15.57
2022-08-02T07:24:51.872Z,15.70
2022-08-02T07:27:19.697Z,14.57
2022-08-02T07:29:48.973Z,13.85
2022-08-02T07:32:19.493Z,19.20
2022-08-02T07:34:50.468Z,15.02
2022-08-02T07:37:35.380Z,14.38
2022-08-02T07:40:15.157Z,14.45
2022-08-02T07:42:52.469Z,13.23
2022-08-02T07:45:20.328Z,14.02
2022-08-02T07:47:47.258Z,14.10
2022-08-02T07:50:15.795Z,12.48
2022-08-02T07:52:43.423Z,12.30
2022-08-02T07:55:11.170Z,12.43
2022-08-02T07:57:44.082Z,13.60
2022-08-02T08:00:13.697Z,12.85
2022-08-02T08:02:40.888Z,12.95
2022-08-02T08:05:08.664Z,13.50
2022-08-02T08:07:35.726Z,13.10
2022-08-02T08:10:04.037Z,14.05
2022-08-02T08:12:30.712Z,13.48
2022-08-02T08:14:57.522Z,11.32
2022-08-02T08:17:24.201Z,12.20
2022-08-02T08:19:52.943Z,12.73
2022-08-02T08:22:20.697Z,12.52
2022-08-02T08:24:48.641Z,13.43
2022-08-02T08:27:16.123Z,12.93
2022-08-02T08:29:43.370Z,12.73
2022-08-02T08:32:15.792Z,12.80
2022-08-02T08:34:43.376Z,12.88
2022-08-02T08:37:10.305Z,13.57
2022-08-02T08:39:56.824Z,12.45
2022-08-02T08:42:28.272Z,12.30
2022-08-02T08:44:57.457Z,11.93
2022-08-02T08:50:05.022Z,11.70
2022-08-02T08:52:36.042Z,11.45
2022-08-02T08:55:05.088Z,11.02
2022-08-02T08:57:37.689Z,11.25
2022-08-02T09:00:04.993Z,10.57
2022-08-02T09:02:36.202Z,10.48
2022-08-02T09:05:03.110Z,12.07
2022-08-02T09:07:29.858Z,11.18
2022-08-02T09:09:56.580Z,9.90
2022-08-02T09:12:25.261Z,12.82
2022-08-02T09:14:52.461Z,10.07
2022-08-02T09:17:21.925Z,10.45
2022-08-02T09:20:07.547Z,17.00
2022-08-02T09:22:34.597Z,12.70
2022-08-02T09:25:01.727Z,14.30
2022-08-02T09:27:36.106Z,13.82
2022-08-02T09:30:12.710Z,22.55
2022-08-02T09:32:48.133Z,15.63
2022-08-02T09:36:06.665Z,15.95
2022-08-02T09:38:18.874Z,18.42
2022-08-02T09:40:45.738Z,22.77
2022-08-02T09:43:12.433Z,15.95
2022-08-02T09:45:39.204Z,15.52
2022-08-02T09:48:09.918Z,16.20
2022-08-02T09:50:40.116Z,16.15
2022-08-02T09:55:39.031Z,16.90
2022-08-02T09:58:19.553Z,15.45
2022-08-02T10:00:57.357Z,16.92
2022-08-02T10:03:24.497Z,16.52
2022-08-02T10:06:02.314Z,16.27
2022-08-02T10:08:32.750Z,15.93
2022-08-02T10:11:01.041Z,15.40
2022-08-02T10:13:29.608Z,15.95
2022-08-02T10:15:57.521Z,15.10
2022-08-02T10:18:38.224Z,15.80
2022-08-02T10:21:24.186Z,15.95
2022-08-02T10:23:53.651Z,15.57
2022-08-02T10:26:21.141Z,16.23
2022-08-02T10:28:49.709Z,17.80
2022-08-02T10:31:27.324Z,17.15
2022-08-02T10:33:58.656Z,16.20
2022-08-02T10:36:27.413Z,15.65
2022-08-02T10:38:56.183Z,16.70
2022-08-02T10:41:42.054Z,16.50
2022-08-02T10:44:24.171Z,16.90
2022-08-02T10:46:53.184Z,16.55
2022-08-02T10:52:09.541Z,17.85
2022-08-02T10:54:42.688Z,16.23
2022-08-02T10:57:24.124Z,17.77
2022-08-02T10:59:55.431Z,17.40
2022-08-02T11:02:47.143Z,16.63
2022-08-02T11:05:43.503Z,17.60
2022-08-02T11:10:45.265Z,18.05
2022-08-02T11:13:19.847Z,17.27
2022-08-02T11:16:11.291Z,15.57
2022-08-02T11:18:44.266Z,16.95
2022-08-02T11:21:28.648Z,16.85
2022-08-02T11:23:56.179Z,16.85
2022-08-02T11:26:31.722Z,17.10
2022-08-02T11:29:00.452Z,16.67
2022-08-02T11:31:28.339Z,17.08
2022-08-02T11:33:56.086Z,17.60
2022-08-02T11:36:23.081Z,16.02
2022-08-02T11:38:50.081Z,16.48
2022-08-02T11:41:46.149Z,16.27
2022-08-02T11:44:10.458Z,16.27
2022-08-02T11:46:37.462Z,16.35
2022-08-02T11:49:18.445Z,16.17
2022-08-02T11:51:57.840Z,17.10
2022-08-02T11:54:35.997Z,16.65
2022-08-02T11:57:20.893Z,16.73
2022-08-02T11:59:50.330Z,17.17
2022-08-02T12:02:18.792Z,16.52
2022-08-02T12:04:58.961Z,17.17
2022-08-02T12:07:34.330Z,16.38
2022-08-02T12:10:11.595Z,16.55
2022-08-02T12:12:57.978Z,16.27
2022-08-02T12:15:44.730Z,16.42
2022-08-02T12:18:31.604Z,16.52
2022-08-02T12:20:58.721Z,16.45
2022-08-02T12:23:26.815Z,15.55
2022-08-02T12:26:00.508Z,15.55
2022-08-02T12:28:27.379Z,15.98
2022-08-02T12:30:58.241Z,16.08
2022-08-02T12:33:27.671Z,15.52
2022-08-02T12:35:55.025Z,16.30
2022-08-02T12:38:22.116Z,16.02
2022-08-02T12:40:49.521Z,16.63
2022-08-02T12:43:19.579Z,16.70
2022-08-02T12:45:49.743Z,15.68
2022-08-02T12:50:45.088Z,16.52
2022-08-02T12:53:17.135Z,16.45
2022-08-02T12:56:01.845Z,17.05
2022-08-02T12:58:31.783Z,17.30
2022-08-02T13:01:01.157Z,17.00
2022-08-02T13:04:07.827Z,29.95
2022-08-02T13:06:41.320Z,16.58
2022-08-02T13:09:12.629Z,19.30
2022-08-02T13:11:43.390Z,17.35
2022-08-02T13:14:11.881Z,19.60
2022-08-02T13:16:38.690Z,17.80
2022-08-02T13:19:05.536Z,16.67
2022-08-02T13:21:41.052Z,16.55
2022-08-02T13:24:38.517Z,16.20
2022-08-02T13:27:08.737Z,17.23
2022-08-02T13:29:37.766Z,16.75
2022-08-02T13:32:04.686Z,17.35
2022-08-02T13:34:31.390Z,16.13
2022-08-02T13:36:58.932Z,16.20
2022-08-02T13:39:25.778Z,15.85
2022-08-02T13:41:52.865Z,16.77
2022-08-02T13:44:19.675Z,16.60
2022-08-02T13:46:46.441Z,17.25
2022-08-02T13:49:18.456Z,18.10
2022-08-02T13:51:47.765Z,16.90
2022-08-02T13:54:15.556Z,17.85
2022-08-02T13:56:42.550Z,18.27
2022-08-02T13:59:57.456Z,17.13
2022-08-02T14:01:57.285Z,15.93
2022-08-02T14:04:24.865Z,16.55
2022-08-02T14:06:51.850Z,15.80
2022-08-02T14:09:18.838Z,16.40
2022-08-02T14:11:46.881Z,16.65
2022-08-02T14:14:16.643Z,15.63
2022-08-02T14:19:16.648Z,16.02
2022-08-02T14:21:46.798Z,17.02
2022-08-02T14:24:21.595Z,17.38
2022-08-02T14:26:48.709Z,16.05
2022-08-02T14:29:16.329Z,15.88
2022-08-02T14:31:44.977Z,14.55
2022-08-02T14:34:13.086Z,15.48
2022-08-02T14:36:39.797Z,14.18
2022-08-02T14:39:07.092Z,15.20
2022-08-02T14:41:59.493Z,14.57
2022-08-02T14:44:24.031Z,13.90
2022-08-02T14:46:51.344Z,13.80
2022-08-02T14:49:25.484Z,14.73
2022-08-02T14:51:55.134Z,15.30
2022-08-02T14:54:33.314Z,15.68
2022-08-02T14:57:03.287Z,15.60
2022-08-02T14:59:30.889Z,15.15
2022-08-02T15:01:58.782Z,17.00
2022-08-02T15:04:26.002Z,15.98
2022-08-02T15:06:53.178Z,15.02
2022-08-02T15:09:20.243Z,14.85
2022-08-02T15:11:49.124Z,14.68
2022-08-02T15:14:21.804Z,14.45
2022-08-02T15:16:57.152Z,16.20
2022-08-02T15:19:37.728Z,15.30
2022-08-02T15:22:15.756Z,14.70
2022-08-02T15:24:45.010Z,15.10
2022-08-02T15:27:14.406Z,13.95
2022-08-02T15:29:42.893Z,13.15
2022-08-02T15:32:09.952Z,13.57
2022-08-02T15:34:37.091Z,13.95
2022-08-02T15:37:03.969Z,14.30
2022-08-02T15:39:30.760Z,15.40
2022-08-02T15:41:57.604Z,14.55
2022-08-02T15:44:25.139Z,14.27
2022-08-02T15:46:53.392Z,14.30
2022-08-02T15:49:23.644Z,13.88
2022-08-02T15:51:52.067Z,13.68
2022-08-02T15:54:19.116Z,14.18
2022-08-02T15:56:46.744Z,15.20
2022-08-02T15:59:13.688Z,15.40
2022-08-02T16:01:44.867Z,14.98
2022-08-02T16:04:14.498Z,14.02
2022-08-02T16:06:41.208Z,14.80
2022-08-02T16:09:07.977Z,14.57
2022-08-02T16:11:34.638Z,15.18
2022-08-02T16:14:01.505Z,15.40
2022-08-02T16:16:31.229Z,15.45
2022-08-02T16:18:58.506Z,15.57
2022-08-02T16:21:25.562Z,16.50
2022-08-02T16:24:01.715Z,15.35
2022-08-02T16:26:34.336Z,15.20
2022-08-02T16:29:03.038Z,15.35
2022-08-02T16:31:30.204Z,15.73
2022-08-02T16:33:57.611Z,14.57
2022-08-02T16:36:25.749Z,14.70
2022-08-02T16:38:53.938Z,15.27
2022-08-02T16:41:22.986Z,15.35
2022-08-02T16:43:50.248Z,15.20
2022-08-02T16:46:17.037Z,16.55
2022-08-02T16:48:51.205Z,15.88
2022-08-02T16:51:19.173Z,15.32
2022-08-02T16:54:00.555Z,14.23
2022-08-02T16:56:28.799Z,14.15
2022-08-02T16:58:59.447Z,14.73
2022-08-02T17:02:01.892Z,14.73
2022-08-02T17:04:15.588Z,14.65
2022-08-02T17:06:47.554Z,15.02
2022-08-02T17:10:01.948Z,14.75
2022-08-02T17:12:08.313Z,14.73
2022-08-02T17:17:34.231Z,14.10
2022-08-02T17:20:02.687Z,16.25
2022-08-02T17:22:29.412Z,15.13
2022-08-02T17:24:56.477Z,14.88
2022-08-02T17:27:26.251Z,15.10
2022-08-02T17:29:53.488Z,19.33
2022-08-02T17:32:20.383Z,18.55
2022-08-02T17:34:48.899Z,14.52
2022-08-02T17:37:23.462Z,14.48
2022-08-02T17:42:36.889Z,14.98
2022-08-02T17:45:17.125Z,15.45
2022-08-02T17:48:04.505Z,15.48
2022-08-02T17:50:35.305Z,15.30
2022-08-02T17:53:03.910Z,14.80
2022-08-02T17:55:31.181Z,14.48
2022-08-02T17:57:59.290Z,15.35
2022-08-02T18:00:36.932Z,19.33
2022-08-02T18:03:09.783Z,23.73
2022-08-02T18:05:40.006Z,15.90
2022-08-02T18:08:21.614Z,14.82
2022-08-02T18:10:50.453Z,16.27
2022-08-02T18:13:17.104Z,23.67
2022-08-02T18:15:45.737Z,17.92
2022-08-02T18:18:14.419Z,15.77
2022-08-02T18:20:41.421Z,17.02
2022-08-02T18:23:10.898Z,15.25
2022-08-02T18:25:44.248Z,14.40
2022-08-02T18:28:13.846Z,14.30
2022-08-02T18:30:40.860Z,13.93
2022-08-02T18:33:59.212Z,13.88
2022-08-02T18:35:56.453Z,14.15
2022-08-02T18:38:26.724Z,14.68
2022-08-02T18:40:54.898Z,14.65
2022-08-02T18:43:25.378Z,14.77
2022-08-02T18:46:05.974Z,15.30
2022-08-02T18:48:44.217Z,15.20
2022-08-02T18:51:18.919Z,15.65
2022-08-02T18:53:55.689Z,15.75
2022-08-02T18:56:25.176Z,15.30
2022-08-02T18:58:55.919Z,15.90
2022-08-02T19:01:32.529Z,20.83
2022-08-02T19:04:05.263Z,27.08
2022-08-02T19:06:36.368Z,21.88
2022-08-02T19:09:13.183Z,19.77
2022-08-02T19:11:48.200Z,21.00
2022-08-02T19:14:27.618Z,18.38
2022-08-02T19:17:15.907Z,16.45
2022-08-02T19:19:48.896Z,15.85
2022-08-02T19:22:22.455Z,14.75
2022-08-02T19:25:01.276Z,14.38
2022-08-02T19:27:40.003Z,14.93
2022-08-02T19:30:17.224Z,14.25
2022-08-02T19:32:59.448Z,14.73
2022-08-02T19:35:34.465Z,14.63
2022-08-02T19:38:14.259Z,14.23
2022-08-02T19:40:42.358Z,14.68
2022-08-02T19:44:23.729Z,14.18
2022-08-02T19:46:33.117Z,14.85
2022-08-02T19:49:17.017Z,14.60
2022-08-02T19:54:55.255Z,15.35
2022-08-02T19:57:25.159Z,15.27
2022-08-02T19:59:54.171Z,15.45
2022-08-02T20:02:23.990Z,15.18
2022-08-02T20:04:55.165Z,15.20
2022-08-02T20:07:49.839Z,14.90
2022-08-02T20:10:13.973Z,15.23
2022-08-02T20:12:51.209Z,15.00
2022-08-02T20:15:20.968Z,15.20
2022-08-02T20:17:51.526Z,14.60
2022-08-02T20:20:23.606Z,15.38
2022-08-02T20:23:33.705Z,15.30
2022-08-02T20:26:05.829Z,14.63
2022-08-02T20:28:36.651Z,14.88
2022-08-02T20:31:07.102Z,14.75
2022-08-02T20:33:55.800Z,14.60
2022-08-02T20:36:25.650Z,15.20
2022-08-02T20:38:55.629Z,14.88
2022-08-02T20:41:37.288Z,14.95
2022-08-02T20:44:15.484Z,14.60
2022-08-02T20:46:59.650Z,14.93
2022-08-02T20:54:56.784Z,14.70
2022-08-02T20:57:48.861Z,14.70
2022-08-02T21:00:15.619Z,14.77
2022-08-02T21:02:43.323Z,14.30
2022-08-02T21:05:18.422Z,14.90
2022-08-02T21:07:53.409Z,15.20
2022-08-02T21:10:31.829Z,14.98
2022-08-02T21:13:00.654Z,14.80
2022-08-02T21:18:49.972Z,16.20
2022-08-02T21:21:19.846Z,16.02
2022-08-02T21:23:54.467Z,15.60
2022-08-02T21:26:30.395Z,14.65
2022-08-02T21:29:03.091Z,15.40
2022-08-02T21:31:36.629Z,15.52
2022-08-02T21:34:22.476Z,14.55
2022-08-02T21:36:55.902Z,14.70
2022-08-02T21:39:24.382Z,14.82
2022-08-02T21:41:53.724Z,14.65
2022-08-02T21:44:23.151Z,14.77
2022-08-02T21:46:55.196Z,14.95
2022-08-02T21:49:40.659Z,15.50
2022-08-02T21:52:14.302Z,15.23
2022-08-02T21:54:46.000Z,14.60
2022-08-02T21:57:18.800Z,15.70
2022-08-02T21:59:48.741Z,15.82
2022-08-02T22:02:30.742Z,16.02
2022-08-02T22:05:02.630Z,15.25
2022-08-02T22:07:38.352Z,15.25
2022-08-02T22:10:09.596Z,15.07
2022-08-02T22:12:37.359Z,15.43
2022-08-02T22:15:11.779Z,15.43
2022-08-02T22:17:53.446Z,14.98
2022-08-02T22:20:29.243Z,15.25
2022-08-02T22:22:57.690Z,15.45
2022-08-02T22:25:36.811Z,15.98
2022-08-02T22:28:38.617Z,15.30
2022-08-02T22:31:05.020Z,15.93
2022-08-02T22:34:00.135Z,15.15
2022-08-02T22:36:30.226Z,15.18
2022-08-02T22:39:02.141Z,16.23
2022-08-02T22:42:01.553Z,16.52
2022-08-02T22:44:23.626Z,16.85
2022-08-02T22:46:52.517Z,16.52
2022-08-02T22:49:38.657Z,15.93
2022-08-02T22:52:14.248Z,15.75
2022-08-02T22:54:45.168Z,15.32
2022-08-02T22:57:16.554Z,16.17
2022-08-02T22:58:39.641Z,14.45
2022-08-02T22:58:49.728Z,15.15
2022-08-02T22:59:05.500Z,15.85
2022-08-02T22:59:06.306Z,14.60
2022-08-02T22:59:10.424Z,15.50
2022-08-02T22:59:56.529Z,15.77
2022-08-02T23:02:26.589Z,15.90
2022-08-02T23:04:53.911Z,16.30
2022-08-02T23:07:21.595Z,16.70
2022-08-02T23:09:51.219Z,16.08
2022-08-02T23:12:22.829Z,16.08
2022-08-02T23:14:58.516Z,16.35
2022-08-02T23:17:46.132Z,16.17
2022-08-02T23:20:14.732Z,16.17
2022-08-02T23:22:42.551Z,16.35
2022-08-02T23:25:13.580Z,16.65
2022-08-02T23:27:49.892Z,16.33
2022-08-02T23:30:21.371Z,16.80
2022-08-02T23:32:53.260Z,17.08
2022-08-02T23:35:22.027Z,16.73
2022-08-02T23:37:59.379Z,16.60
2022-08-02T23:40:40.719Z,16.45
2022-08-02T23:43:13.715Z,16.55
2022-08-02T23:45:47.804Z,16.45
2022-08-02T23:48:20.420Z,16.20
2022-08-02T23:50:55.953Z,16.50
2022-08-02T23:53:25.044Z,16.60
2022-08-02T23:55:53.060Z,16.20
2022-08-02T23:58:25.007Z,16.80
